createdAt,value
2022-08-04T06:30:02.817Z,24.10
2022-08-04T06:35:08.065Z,24.00
2022-08-04T06:40:29.612Z,24.40
2022-08-04T06:45:41.307Z,24.60
2022-08-04T06:51:24.862Z,24.50
2022-08-04T06:56:12.827Z,25.00
2022-08-04T07:01:20.639Z,25.10
2022-08-04T07:06:25.560Z,25.10
2022-08-04T07:11:29.459Z,25.40
2022-08-04T07:16:45.374Z,25.50
2022-08-04T07:22:17.756Z,25.60
2022-08-04T07:27:12.464Z,25.70
2022-08-04T07:32:18.255Z,26.00
2022-08-04T07:37:21.905Z,26.10
2022-08-04T07:42:39.972Z,26.10
2022-08-04T07:48:04.793Z,26.30
2022-08-04T07:53:55.528Z,26.80
2022-08-04T07:58:31.607Z,26.70
2022-08-04T08:03:36.695Z,26.70
2022-08-04T08:08:40.253Z,26.70
2022-08-04T08:13:44.136Z,27.10
2022-08-04T08:18:50.234Z,27.20
2022-08-04T08:23:53.690Z,27.30
2022-08-04T08:28:56.984Z,27.30
2022-08-04T08:34:02.463Z,27.30
2022-08-04T08:39:11.565Z,27.50
2022-08-04T08:44:49.289Z,27.50
2022-08-04T08:50:11.961Z,27.50
2022-08-04T08:55:33.372Z,27.40
2022-08-04T09:00:49.231Z,27.60
2022-08-04T09:06:05.764Z,27.30
2022-08-04T09:11:14.756Z,27.50
2022-08-04T09:16:22.224Z,27.40
2022-08-04T09:21:33.009Z,27.20
2022-08-04T09:26:41.618Z,27.10
2022-08-04T09:32:06.929Z,26.90
2022-08-04T09:37:18.817Z,26.90
2022-08-04T09:42:35.964Z,26.60
2022-08-04T09:47:47.767Z,26.60
2022-08-04T09:53:04.506Z,26.50
2022-08-04T09:58:16.199Z,26.40
2022-08-04T10:03:25.400Z,26.60
2022-08-04T10:08:56.842Z,26.70
2022-08-04T10:14:07.152Z,26.80
2022-08-04T10:19:22.479Z,26.70
2022-08-04T10:24:37.823Z,26.70
2022-08-04T10:29:45.211Z,26.50
2022-08-04T10:35:02.493Z,26.70
2022-08-04T10:40:28.791Z,27.00
2022-08-04T10:45:39.118Z,27.20
2022-08-04T10:50:54.191Z,27.40
2022-08-04T10:56:08.500Z,27.20
2022-08-04T11:01:50.619Z,27.30
2022-08-04T11:06:46.662Z,27.20
2022-08-04T11:12:01.279Z,27.20
2022-08-04T11:17:08.475Z,27.30
2022-08-04T11:22:15.577Z,27.40
2022-08-04T11:27:36.545Z,27.40
2022-08-04T11:32:47.930Z,27.20
2022-08-04T11:38:02.427Z,27.20
2022-08-04T11:43:14.001Z,27.00
2022-08-04T11:48:21.184Z,27.00
2022-08-04T11:53:29.131Z,27.10
2022-08-04T11:58:41.559Z,27.30
2022-08-04T12:04:03.750Z,27.20
2022-08-04T12:09:18.771Z,27.20
2022-08-04T12:14:39.089Z,27.30
2022-08-04T12:20:04.299Z,27.20
2022-08-04T12:25:14.972Z,27.10
2022-08-04T12:30:57.502Z,27.30
2022-08-04T12:36:07.135Z,27.40
2022-08-04T12:41:19.948Z,27.50
2022-08-04T12:46:27.841Z,27.10
2022-08-04T12:52:07.980Z,27.00
2022-08-04T12:57:05.410Z,27.10
2022-08-04T13:02:16.083Z,27.10
2022-08-04T13:07:22.025Z,27.20
2022-08-04T13:12:32.662Z,27.10
2022-08-04T13:17:50.962Z,26.90
2022-08-04T13:23:01.086Z,27.00
2022-08-04T13:28:05.208Z,27.10
2022-08-04T13:33:10.082Z,27.00
2022-08-04T13:38:14.538Z,26.90
2022-08-04T13:44:16.892Z,26.90
2022-08-04T13:49:15.982Z,27.10
2022-08-04T13:54:14.499Z,26.90
2022-08-04T13:59:20.608Z,26.70
2022-08-04T14:04:27.089Z,26.70
2022-08-04T14:09:35.826Z,26.90
2022-08-04T14:14:47.561Z,26.70
2022-08-04T14:19:54.725Z,26.70
2022-08-04T14:24:58.992Z,26.70
2022-08-04T14:30:02.162Z,26.70
2022-08-04T14:35:13.752Z,26.50
2022-08-04T14:40:30.648Z,26.50
2022-08-04T14:45:35.730Z,26.30
2022-08-04T14:50:42.996Z,26.30
2022-08-04T14:55:48.774Z,26.20
2022-08-04T15:00:53.708Z,26.20
2022-08-04T15:06:05.360Z,26.10
2022-08-04T15:11:09.974Z,26.00
2022-08-04T15:16:13.651Z,25.70
2022-08-04T15:21:18.670Z,25.50
2022-08-04T15:26:28.389Z,25.30
2022-08-04T15:32:07.234Z,25.10
2022-08-04T15:37:07.490Z,25.10
2022-08-04T15:42:21.441Z,25.30
2022-08-04T15:47:24.941Z,25.20
2022-08-04T15:52:32.077Z,25.20
2022-08-04T15:58:00.390Z,25.10
2022-08-04T16:03:03.594Z,24.80
2022-08-04T16:08:18.442Z,25.10
2022-08-04T16:13:23.269Z,24.80
2022-08-04T16:18:40.854Z,24.90
2022-08-04T16:24:10.703Z,24.70
2022-08-04T16:29:38.603Z,24.70
2022-08-04T16:34:47.898Z,24.60
2022-08-04T16:40:34.125Z,24.60
2022-08-04T16:46:01.333Z,24.50
2022-08-04T16:51:10.684Z,24.30
2022-08-04T16:56:19.122Z,24.30
2022-08-04T17:01:32.585Z,23.90
2022-08-04T17:06:40.916Z,23.90
2022-08-04T17:12:02.337Z,23.80
2022-08-04T17:17:24.801Z,23.60
2022-08-04T17:22:58.767Z,23.50
2022-08-04T17:28:26.188Z,23.50
2022-08-04T17:33:54.782Z,23.60
2022-08-04T17:39:00.163Z,23.70
2022-08-04T17:44:07.817Z,23.50
2022-08-04T17:49:22.430Z,23.40
2022-08-04T17:54:37.367Z,23.30
2022-08-04T18:00:19.271Z,23.20
2022-08-04T18:06:07.515Z,23.10
2022-08-04T18:46:14.384Z,22.70
2022-08-04T18:58:27.616Z,22.20
2022-08-04T19:08:54.282Z,22.20
2022-08-04T19:14:00.955Z,22.50
2022-08-04T19:19:07.296Z,22.50
2022-08-04T19:24:32.094Z,22.30
2022-08-04T19:35:05.506Z,22.30
2022-08-04T19:40:12.898Z,22.30
2022-08-04T19:45:17.619Z,22.00
2022-08-04T19:50:23.929Z,22.10
2022-08-04T19:55:37.472Z,21.90
2022-08-04T20:00:51.411Z,21.80
2022-08-04T20:05:57.487Z,21.70
2022-08-04T20:11:03.293Z,21.80
2022-08-04T20:16:28.601Z,21.70
2022-08-04T20:21:53.917Z,21.60
2022-08-04T20:26:55.838Z,21.30
2022-08-04T20:32:05.541Z,21.40
2022-08-04T20:37:15.572Z,21.40
2022-08-04T20:42:18.887Z,21.40
2022-08-04T20:47:35.731Z,21.30
2022-08-04T20:52:40.093Z,21.20
2022-08-04T20:57:47.944Z,21.10
2022-08-04T21:02:54.718Z,21.10
2022-08-04T21:07:58.461Z,21.20
2022-08-04T21:13:18.635Z,20.90
2022-08-04T21:18:29.254Z,20.90
2022-08-04T21:23:33.855Z,20.90
2022-08-04T21:28:37.539Z,20.90
2022-08-04T21:33:50.206Z,20.90
2022-08-04T21:38:55.092Z,20.80
2022-08-04T21:43:58.562Z,20.70
2022-08-04T21:49:04.849Z,20.70
2022-08-04T21:54:17.071Z,20.80
2022-08-04T21:59:24.299Z,20.80
2022-08-04T22:04:35.533Z,20.80
2022-08-04T22:09:41.709Z,20.70
2022-08-04T22:20:30.915Z,20.60
2022-08-04T22:25:37.734Z,20.50
2022-08-04T22:30:51.929Z,20.50
2022-08-04T22:35:57.823Z,20.50
2022-08-04T22:41:02.865Z,20.30
2022-08-04T22:46:08.860Z,20.30
2022-08-04T22:51:17.081Z,20.30
2022-08-04T22:56:37.446Z,20.20
2022-08-04T23:01:59.651Z,20.20
2022-08-04T23:07:09.642Z,20.10
2022-08-04T23:12:28.896Z,20.10
2022-08-04T23:17:43.997Z,20.00
2022-08-04T23:22:55.960Z,20.00
2022-08-04T23:27:59.210Z,20.10
2022-08-04T23:33:02.578Z,20.10
2022-08-04T23:38:30.464Z,20.10
2022-08-04T23:43:38.715Z,20.20
2022-08-04T23:48:53.628Z,20.10
2022-08-04T23:54:03.566Z,20.20
2022-08-04T23:59:27.509Z,20.10
